sensor_id;sensor_type;location;lat;lon;timestamp;pressure;altitude;pressure_sealevel;temperature;humidity
68077;BME280;54866;53.458;14.540;2023-02-21T00:01:35;99926.33;;;6.45;100.00
68077;BME280;54866;53.458;14.540;2023-02-21T00:04:22;99912.86;;;6.43;100.00
68077;BME280;54866;53.458;14.540;2023-02-21T00:07:09;99913.27;;;6.42;100.00
68077;BME280;54866;53.458;14.540;2023-02-21T00:09:56;99907.60;;;6.40;100.00
68077;BME280;54866;53.458;14.540;2023-02-21T00:12:43;99919.56;;;6.42;100.00
68077;BME280;54866;53.458;14.540;2023-02-21T00:15:29;99927.14;;;6.41;100.00
68077;BME280;54866;53.458;14.540;2023-02-21T00:18:17;99913.67;;;6.38;100.00
68077;BME280;54866;53.458;14.540;2023-02-21T00:21:04;99913.05;;;6.38;100.00
68077;BME280;54866;53.458;14.540;2023-02-21T00:23:51;99912.69;;;6.38;100.00
68077;BME280;54866;53.458;14.540;2023-02-21T00:26:38;99909.58;;;6.40;100.00
68077;BME280;54866;53.458;14.540;2023-02-21T00:29:25;99905.55;;;6.44;100.00
68077;BME280;54866;53.458;14.540;2023-02-21T00:32:13;99888.41;;;6.51;100.00
68077;BME280;54866;53.458;14.540;2023-02-21T00:35:00;99907.95;;;6.54;100.00
68077;BME280;54866;53.458;14.540;2023-02-21T00:37:49;99907.17;;;6.53;100.00
68077;BME280;54866;53.458;14.540;2023-02-21T00:40:37;99910.30;;;6.51;100.00
68077;BME280;54866;53.458;14.540;2023-02-21T00:43:29;99903.07;;;6.50;100.00
68077;BME280;54866;53.458;14.540;2023-02-21T00:46:17;99904.02;;;6.51;100.00
68077;BME280;54866;53.458;14.540;2023-02-21T00:49:04;99901.69;;;6.49;100.00
68077;BME280;54866;53.458;14.540;2023-02-21T00:51:52;99890.40;;;6.46;100.00
68077;BME280;54866;53.458;14.540;2023-02-21T00:54:38;99890.92;;;6.46;100.00
68077;BME280;54866;53.458;14.540;2023-02-21T00:57:25;99877.70;;;6.45;100.00
68077;BME280;54866;53.458;14.540;2023-02-21T01:00:17;99875.02;;;6.46;100.00
68077;BME280;54866;53.458;14.540;2023-02-21T01:03:04;99880.23;;;6.46;100.00
68077;BME280;54866;53.458;14.540;2023-02-21T01:05:52;99870.84;;;6.45;100.00
68077;BME280;54866;53.458;14.540;2023-02-21T01:08:42;99853.90;;;6.45;100.00
68077;BME280;54866;53.458;14.540;2023-02-21T01:11:30;99866.42;;;6.44;100.00
68077;BME280;54866;53.458;14.540;2023-02-21T01:14:18;99847.42;;;6.43;100.00
68077;BME280;54866;53.458;14.540;2023-02-21T01:17:04;99851.84;;;6.42;100.00
68077;BME280;54866;53.458;14.540;2023-02-21T01:19:51;99847.46;;;6.42;100.00
68077;BME280;54866;53.458;14.540;2023-02-21T01:22:38;99843.65;;;6.42;100.00
68077;BME280;54866;53.458;14.540;2023-02-21T01:25:25;99837.45;;;6.40;100.00
68077;BME280;54866;53.458;14.540;2023-02-21T01:28:12;99826.02;;;6.36;100.00
68077;BME280;54866;53.458;14.540;2023-02-21T01:30:59;99836.34;;;6.34;100.00
68077;BME280;54866;53.458;14.540;2023-02-21T01:33:46;99833.07;;;6.31;100.00
68077;BME280;54866;53.458;14.540;2023-02-21T01:36:33;99827.12;;;6.26;100.00
68077;BME280;54866;53.458;14.540;2023-02-21T01:39:20;99837.83;;;6.26;100.00
68077;BME280;54866;53.458;14.540;2023-02-21T01:42:09;99828.84;;;6.29;100.00
68077;BME280;54866;53.458;14.540;2023-02-21T01:48:37;99839.23;;;6.28;100.00
68077;BME280;54866;53.458;14.540;2023-02-21T01:51:28;99830.55;;;6.29;99.94
68077;BME280;54866;53.458;14.540;2023-02-21T01:54:18;99849.06;;;6.27;99.98
68077;BME280;54866;53.458;14.540;2023-02-21T01:57:06;99853.83;;;6.22;100.00
68077;BME280;54866;53.458;14.540;2023-02-21T01:59:55;99857.93;;;6.21;99.82
68077;BME280;54866;53.458;14.540;2023-02-21T02:02:50;99872.25;;;6.21;99.13
68077;BME280;54866;53.458;14.540;2023-02-21T02:05:40;99873.86;;;6.18;99.17
68077;BME280;54866;53.458;14.540;2023-02-21T02:08:29;99884.05;;;6.15;99.12
68077;BME280;54866;53.458;14.540;2023-02-21T02:11:25;99871.77;;;6.14;99.00
68077;BME280;54866;53.458;14.540;2023-02-21T02:14:26;99874.92;;;6.16;97.96
68077;BME280;54866;53.458;14.540;2023-02-21T02:17:10;99868.09;;;6.11;98.11
68077;BME280;54866;53.458;14.540;2023-02-21T02:20:09;99863.20;;;6.09;97.95
68077;BME280;54866;53.458;14.540;2023-02-21T02:23:03;99860.68;;;6.08;97.64
68077;BME280;54866;53.458;14.540;2023-02-21T02:25:50;99854.00;;;6.08;97.01
68077;BME280;54866;53.458;14.540;2023-02-21T02:28:48;99861.55;;;6.10;96.40
68077;BME280;54866;53.458;14.540;2023-02-21T02:31:41;99866.13;;;6.10;96.08
68077;BME280;54866;53.458;14.540;2023-02-21T02:34:38;99854.15;;;6.08;95.86
